Time;durP1;ratioP1;P1;durP2;ratioP2;P2;SDS_P1;SDS_P2;PMS_P1;PMS_P2;Temp;Humidity;BMP_temperature;BMP_pressure;BME280_temperature;BME280_humidity;BME280_pressure;Samples;Min_cycle;Max_cycle;Signal;HPM_P1;HPM_P2
2023/02/12 00:32:56;;;;;;;2.60;0.65;;;24.70;49.00;;;;;;6152657;22;20249;-47
2023/02/12 00:35:31;;;;;;;2.60;1.00;;;24.70;49.00;;;;;;5008247;28;20210;-47
2023/02/12 00:38:03;;;;;;;4.07;0.98;;;24.70;49.00;;;;;;5020867;28;20559;-48
2023/02/12 00:40:34;;;;;;;3.55;0.93;;;24.70;49.00;;;;;;5031541;28;20219;-54
2023/02/12 00:43:06;;;;;;;2.75;0.70;;;24.80;49.00;;;;;;5015808;28;20506;-49
2023/02/12 00:48:07;;;;;;;4.45;0.80;;;24.80;48.90;;;;;;5080541;22;20617;-46
2023/02/12 00:50:39;;;;;;;1.65;0.70;;;24.80;48.90;;;;;;5054997;28;20211;-49
2023/02/12 00:53:11;;;;;;;1.83;0.82;;;24.80;48.90;;;;;;5055171;28;20620;-49
2023/02/12 00:55:42;;;;;;;2.70;0.75;;;24.90;48.90;;;;;;5055426;28;20258;-46
2023/02/12 00:58:15;;;;;;;1.73;0.90;;;24.90;48.90;;;;;;5055413;28;20523;-48
2023/02/12 01:00:46;;;;;;;4.18;1.00;;;24.90;48.90;;;;;;5054518;28;20617;-48
2023/02/12 01:03:20;;;;;;;3.33;1.10;;;24.90;48.90;;;;;;5054448;28;20548;-46
2023/02/12 01:05:51;;;;;;;3.42;1.00;;;24.90;48.90;;;;;;5055446;28;20540;-50
2023/02/12 01:08:23;;;;;;;3.92;0.98;;;24.90;48.80;;;;;;5055093;28;20553;-46
2023/02/12 01:10:59;;;;;;;1.65;0.80;;;24.90;48.80;;;;;;5054341;28;20618;-48
2023/02/12 01:13:32;;;;;;;2.42;0.90;;;25.00;48.80;;;;;;5054836;28;20260;-48
2023/02/12 01:16:09;;;;;;;2.60;0.73;;;25.00;48.80;;;;;;5054848;28;20184;-46
2023/02/12 01:18:42;;;;;;;2.33;1.08;;;25.00;48.80;;;;;;5054547;28;20560;-50
2023/02/12 01:21:18;;;;;;;3.20;0.93;;;25.00;48.70;;;;;;5054352;28;20251;-49
2023/02/12 01:23:50;;;;;;;4.20;0.98;;;25.10;48.90;;;;;;5054571;28;20215;-61
2023/02/12 01:26:22;;;;;;;4.57;1.30;;;25.10;48.80;;;;;;5054556;28;20187;-46
2023/02/12 01:28:55;;;;;;;6.82;1.45;;;25.10;48.90;;;;;;5054801;28;20282;-50
2023/02/12 01:31:28;;;;;;;4.65;1.40;;;25.10;48.90;;;;;;5054620;28;20215;-51
2023/02/12 01:34:02;;;;;;;4.55;1.17;;;25.10;49.00;;;;;;5054295;28;20530;-48
2023/02/12 01:36:34;;;;;;;3.53;1.20;;;25.10;49.00;;;;;;5054265;28;20594;-48
2023/02/12 01:39:06;;;;;;;4.68;1.27;;;25.10;49.10;;;;;;5054691;28;20597;-49
2023/02/12 01:41:40;;;;;;;5.43;1.40;;;25.10;49.20;;;;;;5055057;28;20208;-47
2023/02/12 02:46:08;;;;;;;2.92;0.82;;;25.40;47.90;;;;;;5254576;22;20691;-52
2023/02/12 02:48:44;;;;;;;1.52;0.80;;;25.50;47.90;;;;;;5052833;28;20546;-50
2023/02/12 02:51:19;;;;;;;3.17;0.77;;;25.50;47.80;;;;;;5049978;28;20203;-49
2023/02/12 02:53:56;;;;;;;2.55;0.77;;;25.50;47.80;;;;;;5032820;28;20278;-52
2023/02/12 02:56:29;;;;;;;2.55;0.77;;;25.50;47.60;;;;;;5032485;28;20214;-49
2023/02/12 02:59:05;;;;;;;1.85;0.80;;;25.50;47.60;;;;;;5032920;28;20553;-53
2023/02/12 03:01:44;;;;;;;3.20;0.70;;;25.50;47.50;;;;;;5032783;28;20595;-50
2023/02/12 03:04:21;;;;;;;2.17;0.93;;;25.50;47.50;;;;;;5032923;28;20571;-50
2023/02/12 03:06:57;;;;;;;2.38;0.70;;;25.50;47.50;;;;;;5034034;28;20199;-49
2023/02/12 03:09:32;;;;;;;1.50;0.77;;;25.60;47.60;;;;;;5052702;28;20187;-49
2023/02/12 03:12:06;;;;;;;3.25;0.90;;;25.60;47.50;;;;;;5052944;28;20214;-48
2023/02/12 03:14:41;;;;;;;2.58;0.73;;;25.60;47.50;;;;;;5052815;28;20269;-50
2023/02/12 03:17:18;;;;;;;1.73;0.70;;;25.60;47.40;;;;;;5049270;28;20205;-51
2023/02/12 03:19:53;;;;;;;2.28;0.60;;;25.60;47.50;;;;;;5053313;28;20191;-48
2023/02/12 03:22:28;;;;;;;1.05;0.60;;;25.70;47.50;;;;;;5052406;28;20280;-47
2023/02/12 03:25:08;;;;;;;2.55;0.70;;;25.70;47.40;;;;;;5052439;28;20319;-50
2023/02/12 03:27:43;;;;;;;3.40;0.93;;;25.70;47.40;;;;;;5052583;28;20584;-51
2023/02/12 03:30:15;;;;;;;6.90;1.42;;;25.70;47.30;;;;;;5052357;28;20583;-49
2023/02/12 03:32:54;;;;;;;2.35;0.88;;;25.80;47.20;;;;;;5040894;28;20542;-49
2023/02/12 03:35:29;;;;;;;4.65;0.70;;;25.80;47.20;;;;;;5032318;28;20283;-48
2023/02/12 03:38:07;;;;;;;3.20;0.82;;;25.80;47.30;;;;;;5043622;28;20195;-51
2023/02/12 03:40:43;;;;;;;1.98;0.90;;;25.80;47.40;;;;;;5052008;28;20262;-49
2023/02/12 03:43:23;;;;;;;1.45;0.60;;;25.80;47.40;;;;;;5051855;28;20265;-48
2023/02/12 03:45:59;;;;;;;1.77;0.60;;;25.80;47.40;;;;;;5052084;28;20583;-48
2023/02/12 03:48:36;;;;;;;2.35;0.70;;;25.80;47.30;;;;;;5051502;28;20225;-49
2023/02/12 03:51:16;;;;;;;0.88;0.52;;;25.90;47.30;;;;;;5052230;28;20550;-49
2023/02/12 03:53:48;;;;;;;1.75;0.70;;;25.90;47.20;;;;;;5052167;28;20241;-50
2023/02/12 03:56:24;;;;;;;2.35;0.60;;;25.90;47.20;;;;;;5051297;28;20562;-50
2023/02/12 03:58:55;;;;;;;1.70;0.85;;;26.00;47.20;;;;;;5051671;28;20238;-51
2023/02/12 04:01:27;;;;;;;3.17;0.70;;;26.00;47.20;;;;;;5051416;28;20576;-50
2023/02/12 04:04:01;;;;;;;1.83;0.80;;;26.00;47.20;;;;;;5051052;28;20324;-48
2023/02/12 04:06:32;;;;;;;2.10;0.90;;;26.00;47.10;;;;;;5051409;28;20542;-50
2023/02/12 04:09:07;;;;;;;3.38;0.80;;;26.10;47.10;;;;;;5051112;28;20549;-48
2023/02/12 04:11:52;;;;;;;3.28;0.93;;;26.10;47.10;;;;;;5051998;28;20558;-50
2023/02/12 04:14:33;;;;;;;2.80;0.68;;;26.10;46.90;;;;;;5050934;28;20203;-53
2023/02/12 04:17:07;;;;;;;1.40;0.60;;;26.20;46.90;;;;;;5051272;28;20188;-53
2023/02/12 04:20:02;;;;;;;1.67;0.68;;;26.20;46.90;;;;;;5051392;28;20195;-47
2023/02/12 04:22:47;;;;;;;2.75;0.80;;;26.20;46.80;;;;;;5051282;28;20199;-48
2023/02/12 04:25:34;;;;;;;1.23;0.60;;;26.30;46.80;;;;;;5051469;28;20262;-47
2023/02/12 04:28:14;;;;;;;2.45;0.65;;;26.30;46.70;;;;;;5049800;28;20542;-47
2023/02/12 04:30:49;;;;;;;2.80;0.77;;;26.30;46.60;;;;;;5051521;28;20565;-48
2023/02/12 04:33:23;;;;;;;1.58;0.60;;;26.30;46.60;;;;;;5051352;28;20561;-47
2023/02/12 04:36:01;;;;;;;1.33;0.43;;;26.30;46.50;;;;;;5051467;28;20196;-49
2023/02/12 04:38:38;;;;;;;1.70;0.60;;;26.30;46.50;;;;;;5051368;28;20932;-47
2023/02/12 04:41:10;;;;;;;1.45;0.68;;;26.40;46.50;;;;;;5051439;28;20632;-46
2023/02/12 04:43:41;;;;;;;2.92;0.70;;;26.40;46.50;;;;;;5050942;28;20195;-48
2023/02/12 04:49:00;;;;;;;1.05;0.60;;;26.40;46.30;;;;;;5134083;22;20230;-52
2023/02/12 04:51:41;;;;;;;2.20;0.65;;;26.40;46.20;;;;;;5068445;28;20711;-52
2023/02/12 04:54:16;;;;;;;1.10;0.40;;;26.50;46.30;;;;;;5056834;28;20539;-50
2023/02/12 04:56:55;;;;;;;0.73;0.45;;;26.40;46.10;;;;;;5050464;28;20591;-51
2023/02/12 04:59:42;;;;;;;1.90;0.65;;;26.50;46.30;;;;;;5050706;28;20195;-52
2023/02/12 05:02:28;;;;;;;2.65;0.70;;;26.50;46.30;;;;;;5050224;28;20294;-52
2023/02/12 05:05:05;;;;;;;1.23;0.75;;;26.50;46.30;;;;;;5050528;28;20314;-50
2023/02/12 05:07:43;;;;;;;1.85;0.75;;;26.50;46.30;;;;;;5057706;28;20523;-50
2023/02/12 05:10:21;;;;;;;1.27;0.60;;;26.50;46.30;;;;;;5070099;28;20576;-48
2023/02/12 05:12:58;;;;;;;2.83;0.73;;;26.50;46.30;;;;;;5069718;28;20591;-52
2023/02/12 05:15:30;;;;;;;1.60;0.50;;;26.50;46.30;;;;;;5070723;28;20209;-52
2023/02/12 05:18:10;;;;;;;1.42;0.63;;;26.50;46.30;;;;;;5071088;28;20590;-53
2023/02/12 05:20:44;;;;;;;2.03;0.70;;;26.50;46.20;;;;;;5070811;28;20225;-52
2023/02/12 05:23:18;;;;;;;2.05;0.70;;;26.50;46.20;;;;;;5070838;28;20556;-50
2023/02/12 05:25:50;;;;;;;0.73;0.40;;;26.50;46.20;;;;;;5069048;28;20574;-53
2023/02/12 05:28:23;;;;;;;0.65;0.50;;;26.50;46.20;;;;;;5073223;28;20581;-52
2023/02/12 05:30:55;;;;;;;1.17;0.60;;;26.50;46.20;;;;;;5072591;28;20367;-51
2023/02/12 05:33:26;;;;;;;1.77;0.68;;;26.50;46.20;;;;;;5074178;28;20267;-48
2023/02/12 05:35:57;;;;;;;3.22;0.80;;;26.50;46.20;;;;;;5074043;28;20284;-49
2023/02/12 05:38:30;;;;;;;1.27;0.80;;;26.50;46.20;;;;;;5074290;28;20199;-51
2023/02/12 05:41:05;;;;;;;1.42;0.70;;;26.60;46.20;;;;;;5073683;28;20219;-49
2023/02/12 05:43:36;;;;;;;1.67;0.70;;;26.60;46.20;;;;;;5073308;28;20634;-48
2023/02/12 05:46:07;;;;;;;2.53;0.70;;;26.60;46.10;;;;;;5074484;28;20227;-53
2023/02/12 05:48:39;;;;;;;2.80;0.85;;;26.60;46.10;;;;;;5074344;28;20305;-48
2023/02/12 05:51:11;;;;;;;1.33;0.68;;;26.60;46.10;;;;;;5074407;28;20215;-49
2023/02/12 05:53:44;;;;;;;1.63;0.50;;;26.60;46.00;;;;;;5074320;28;20669;-48
2023/02/12 05:56:17;;;;;;;1.77;0.50;;;26.60;45.90;;;;;;5073973;28;20210;-49
2023/02/12 05:58:49;;;;;;;1.17;0.60;;;26.60;45.80;;;;;;5074136;28;20197;-49
2023/02/12 06:01:22;;;;;;;1.60;0.73;;;26.60;45.80;;;;;;5073534;28;20317;-51
2023/02/12 06:03:53;;;;;;;1.88;0.75;;;26.60;45.70;;;;;;5073333;28;20209;-48
2023/02/12 06:06:26;;;;;;;2.30;0.73;;;26.60;45.70;;;;;;5074041;28;20233;-51
2023/02/12 06:08:59;;;;;;;1.27;0.77;;;26.60;45.70;;;;;;5073892;28;20198;-49
2023/02/12 06:11:30;;;;;;;1.98;0.57;;;26.50;45.60;;;;;;5073808;28;20236;-52
2023/02/12 06:14:03;;;;;;;2.22;0.60;;;26.50;45.60;;;;;;5073804;28;20282;-48
2023/02/12 06:16:35;;;;;;;3.25;0.95;;;26.60;45.70;;;;;;5073495;28;20195;-49
2023/02/12 06:19:08;;;;;;;1.48;0.47;;;26.50;45.60;;;;;;5073196;28;20198;-51
2023/02/12 06:21:38;;;;;;;1.65;0.70;;;26.50;45.60;;;;;;5073572;28;20210;-53
2023/02/12 06:24:12;;;;;;;1.27;0.80;;;26.50;45.70;;;;;;5074112;28;20195;-49
2023/02/12 06:26:43;;;;;;;0.85;0.50;;;26.50;45.70;;;;;;5073219;28;20315;-49
2023/02/12 06:29:14;;;;;;;2.30;0.60;;;26.50;45.70;;;;;;5069943;28;20199;-51
2023/02/12 06:31:45;;;;;;;1.70;0.70;;;26.50;45.70;;;;;;5073196;28;20214;-51
2023/02/12 06:34:17;;;;;;;0.88;0.55;;;26.50;45.60;;;;;;5073463;28;20198;-50
2023/02/12 06:36:48;;;;;;;3.10;0.80;;;26.50;45.60;;;;;;5072366;28;20682;-51
2023/02/12 06:39:21;;;;;;;1.35;0.80;;;26.50;45.60;;;;;;5073253;28;20568;-50
2023/02/12 06:41:51;;;;;;;2.00;0.70;;;26.50;45.50;;;;;;5073027;28;20683;-51
2023/02/12 06:46:49;;;;;;;2.67;0.77;;;26.60;45.50;;;;;;5011050;28;20287;-47
2023/02/12 06:49:20;;;;;;;1.65;0.70;;;26.50;45.40;;;;;;5012670;28;20577;-47
2023/02/12 06:51:51;;;;;;;1.83;0.52;;;26.50;45.40;;;;;;5028617;28;20307;-49
2023/02/12 06:54:24;;;;;;;1.70;0.70;;;26.50;45.40;;;;;;5032747;28;20226;-50
2023/02/12 06:56:54;;;;;;;2.05;0.70;;;26.50;45.40;;;;;;5031957;28;20195;-51
2023/02/12 06:59:25;;;;;;;2.35;0.70;;;26.50;45.40;;;;;;5032400;28;20672;-46
2023/02/12 07:01:56;;;;;;;2.45;0.75;;;26.50;45.40;;;;;;5032351;28;20586;-49
2023/02/12 07:04:27;;;;;;;0.85;0.60;;;26.50;45.40;;;;;;5032229;28;20196;-46
2023/02/12 07:06:57;;;;;;;0.93;0.50;;;26.50;45.40;;;;;;5032121;28;20235;-51
2023/02/12 07:09:30;;;;;;;1.42;0.45;;;26.50;45.50;;;;;;5032508;28;20275;-49
2023/02/12 07:12:02;;;;;;;1.10;0.68;;;26.40;45.40;;;;;;5032540;28;20299;-50
2023/02/12 07:14:32;;;;;;;1.85;0.57;;;26.40;45.50;;;;;;5032401;28;20227;-49
2023/02/12 07:17:04;;;;;;;1.23;0.60;;;26.40;45.50;;;;;;5032741;28;20218;-50
2023/02/12 07:19:35;;;;;;;1.92;0.60;;;26.50;45.60;;;;;;5032534;28;20206;-49
2023/02/12 07:22:06;;;;;;;2.03;0.65;;;26.40;45.50;;;;;;5029257;28;20296;-51
2023/02/12 07:24:39;;;;;;;1.45;0.60;;;26.40;45.50;;;;;;5032706;28;20656;-46
2023/02/12 07:27:09;;;;;;;1.23;0.55;;;26.40;45.50;;;;;;5032397;28;20220;-49
2023/02/12 07:29:40;;;;;;;1.88;0.50;;;26.40;45.50;;;;;;5032398;28;20208;-49
2023/02/12 07:32:11;;;;;;;1.55;0.70;;;26.40;45.50;;;;;;5031410;28;20216;-50
2023/02/12 07:34:42;;;;;;;2.53;0.70;;;26.30;45.50;;;;;;5031972;28;20196;-47
2023/02/12 07:37:12;;;;;;;1.55;0.57;;;26.30;45.60;;;;;;5032305;28;20293;-49
2023/02/12 07:39:45;;;;;;;2.13;0.60;;;26.30;45.60;;;;;;5032454;28;20295;-50
2023/02/12 07:42:16;;;;;;;2.25;0.70;;;26.30;45.50;;;;;;5031974;28;20223;-50
2023/02/12 07:44:47;;;;;;;0.70;0.40;;;26.30;45.50;;;;;;5049532;22;20213;-49
2023/02/12 07:47:18;;;;;;;2.13;0.60;;;26.20;45.40;;;;;;5071866;28;20237;-49
2023/02/12 07:49:49;;;;;;;1.45;0.60;;;26.20;45.50;;;;;;5071896;28;20194;-48
2023/02/12 07:52:20;;;;;;;1.00;0.40;;;26.20;45.50;;;;;;5071742;28;20215;-48
2023/02/12 07:54:52;;;;;;;1.80;0.50;;;26.20;45.50;;;;;;5071539;28;20281;-51
2023/02/12 07:57:23;;;;;;;0.95;0.50;;;26.20;45.60;;;;;;5071285;28;20199;-50
2023/02/12 07:59:55;;;;;;;1.88;0.65;;;26.20;45.60;;;;;;5071709;28;20693;-49
2023/02/12 08:02:26;;;;;;;0.88;0.50;;;26.10;45.60;;;;;;5072039;28;20221;-53
2023/02/12 08:04:59;;;;;;;1.17;0.50;;;26.10;45.60;;;;;;5071582;28;20651;-48
2023/02/12 08:07:30;;;;;;;0.75;0.47;;;26.10;45.60;;;;;;5071474;28;20211;-50
2023/02/12 08:10:03;;;;;;;1.40;0.50;;;26.10;45.60;;;;;;5071420;28;20308;-47
2023/02/12 08:12:34;;;;;;;1.05;0.52;;;26.10;45.60;;;;;;5071019;28;20561;-52
2023/02/12 08:15:05;;;;;;;0.95;0.60;;;26.10;45.60;;;;;;5071294;28;20190;-49
2023/02/12 08:17:36;;;;;;;0.90;0.50;;;26.10;45.70;;;;;;5071277;28;20203;-53
2023/02/12 08:20:08;;;;;;;1.13;0.68;;;26.00;45.60;;;;;;5071247;28;20197;-49
2023/02/12 08:22:38;;;;;;;1.98;0.65;;;26.00;45.60;;;;;;5071615;28;20202;-48
2023/02/12 08:25:11;;;;;;;1.27;0.50;;;26.00;45.60;;;;;;5071712;28;20195;-50
2023/02/12 08:27:44;;;;;;;2.35;0.70;;;26.00;45.60;;;;;;5071315;28;20305;-51
2023/02/12 08:30:15;;;;;;;1.40;0.50;;;26.00;45.60;;;;;;5066058;28;20566;-50
2023/02/12 08:32:46;;;;;;;1.60;0.50;;;25.90;45.60;;;;;;5051284;28;20203;-47
2023/02/12 08:35:17;;;;;;;1.52;0.60;;;25.90;45.60;;;;;;5051497;28;20192;-50
2023/02/12 08:37:48;;;;;;;1.05;0.70;;;25.80;45.50;;;;;;5059992;28;20290;-48
2023/02/12 08:40:21;;;;;;;1.48;0.70;;;25.80;45.60;;;;;;5071159;28;20195;-50
2023/02/12 08:42:51;;;;;;;1.33;0.80;;;25.80;45.60;;;;;;5071273;28;20202;-49
2023/02/12 08:45:22;;;;;;;1.95;0.50;;;25.80;45.50;;;;;;5084029;22;20227;-48
2023/02/12 08:47:54;;;;;;;1.20;0.43;;;25.80;45.60;;;;;;5071328;28;20199;-49
2023/02/12 08:50:25;;;;;;;1.00;0.60;;;25.80;45.60;;;;;;5071116;28;20309;-50
2023/02/12 08:52:55;;;;;;;1.20;0.50;;;25.80;45.60;;;;;;5070161;28;20234;-48
2023/02/12 08:55:28;;;;;;;1.33;0.40;;;25.80;45.60;;;;;;5053108;28;20193;-48
2023/02/12 08:58:00;;;;;;;0.30;0.30;;;25.70;45.60;;;;;;5051369;28;20604;-49
2023/02/12 09:00:30;;;;;;;1.27;0.43;;;25.70;45.70;;;;;;5052445;28;20585;-50
2023/02/12 09:03:01;;;;;;;0.73;0.50;;;25.70;45.60;;;;;;5055074;28;20195;-50
2023/02/12 09:05:32;;;;;;;1.58;0.50;;;25.70;45.60;;;;;;5055214;28;20550;-49
2023/02/12 09:08:03;;;;;;;0.80;0.40;;;25.70;45.50;;;;;;5066024;28;20194;-51
2023/02/12 09:10:35;;;;;;;0.80;0.60;;;25.60;45.40;;;;;;5074985;28;20226;-49
2023/02/12 09:13:06;;;;;;;0.65;0.40;;;25.60;45.50;;;;;;5074442;28;20191;-50
2023/02/12 09:15:40;;;;;;;2.40;0.70;;;25.60;45.50;;;;;;5074760;28;20570;-48
2023/02/12 09:18:11;;;;;;;1.00;0.40;;;25.50;45.50;;;;;;5074849;28;20571;-49
2023/02/12 09:20:43;;;;;;;0.95;0.47;;;25.50;45.50;;;;;;5074673;28;20297;-50
2023/02/12 09:23:15;;;;;;;1.27;0.52;;;25.50;45.50;;;;;;5074074;28;20194;-47
2023/02/12 09:25:48;;;;;;;1.13;0.40;;;25.50;45.60;;;;;;5060586;28;20191;-48
2023/02/12 09:28:19;;;;;;;0.60;0.40;;;25.50;45.60;;;;;;5074822;28;20223;-49
2023/02/12 09:30:50;;;;;;;0.80;0.30;;;25.40;45.50;;;;;;5073967;28;20215;-47
2023/02/12 09:33:21;;;;;;;0.80;0.32;;;25.40;45.50;;;;;;5073899;28;20746;-50
2023/02/12 09:35:52;;;;;;;0.65;0.35;;;25.40;45.60;;;;;;5074361;28;20282;-50
2023/02/12 09:38:23;;;;;;;0.98;0.52;;;25.30;45.50;;;;;;5074749;28;20731;-48
2023/02/12 09:41:14;;;;;;;0.75;0.40;;;25.30;45.50;;;;;;5074561;28;20690;-50
2023/02/12 09:43:49;;;;;;;0.75;0.40;;;25.30;45.50;;;;;;5074453;28;20194;-51
2023/02/12 09:46:24;;;;;;;0.70;0.50;;;25.30;45.50;;;;;;5071658;22;20233;-49
2023/02/12 09:49:10;;;;;;;0.73;0.50;;;25.30;45.50;;;;;;5053978;28;20198;-50
2023/02/12 09:51:42;;;;;;;0.60;0.45;;;25.30;45.50;;;;;;5053863;28;20265;-48
2023/02/12 09:54:17;;;;;;;1.55;0.60;;;25.30;45.50;;;;;;5054363;28;20195;-51
2023/02/12 09:56:53;;;;;;;1.13;0.50;;;25.20;45.50;;;;;;5054309;28;20643;-48
2023/02/12 09:59:36;;;;;;;0.75;0.30;;;25.20;45.50;;;;;;5054076;28;20677;-50
2023/02/12 10:02:13;;;;;;;0.85;0.50;;;25.20;45.50;;;;;;5053971;28;20215;-48
2023/02/12 10:04:44;;;;;;;0.57;0.40;;;25.10;45.40;;;;;;5053549;28;20195;-49
2023/02/12 10:07:25;;;;;;;1.75;0.50;;;25.10;45.50;;;;;;5053625;28;20259;-48
2023/02/12 10:10:15;;;;;;;0.57;0.30;;;25.10;45.50;;;;;;5053691;28;20587;-48
2023/02/12 10:12:54;;;;;;;0.85;0.40;;;25.10;45.60;;;;;;5052178;28;20199;-49
2023/02/12 10:15:35;;;;;;;2.80;0.40;;;25.00;45.50;;;;;;5053430;28;20195;-47
2023/02/12 10:18:28;;;;;;;0.98;0.47;;;25.00;45.60;;;;;;5053578;28;20199;-49
2023/02/12 10:21:14;;;;;;;3.22;0.65;;;25.00;46.20;;;;;;5053280;28;20593;-48
2023/02/12 10:24:07;;;;;;;2.10;0.70;;;24.90;45.50;;;;;;5053276;28;20199;-50
2023/02/12 10:26:42;;;;;;;1.95;0.68;;;24.90;45.50;;;;;;5053607;28;20691;-48
2023/02/12 10:29:19;;;;;;;1.25;0.45;;;24.90;45.50;;;;;;5040247;28;20875;-47
2023/02/12 10:31:56;;;;;;;1.05;0.60;;;24.90;45.50;;;;;;5033609;28;20379;-49
2023/02/12 10:34:32;;;;;;;1.40;0.70;;;24.90;45.60;;;;;;5032937;28;20286;-50
2023/02/12 10:37:06;;;;;;;1.05;0.60;;;24.80;45.50;;;;;;5035884;28;20322;-50
2023/02/12 10:39:43;;;;;;;1.30;0.55;;;24.90;45.60;;;;;;5052892;28;20194;-49
2023/02/12 10:42:18;;;;;;;2.92;0.73;;;24.80;45.60;;;;;;5052989;28;20307;-52
2023/02/12 10:44:50;;;;;;;1.27;0.47;;;24.80;45.60;;;;;;5067451;22;20179;-46
2023/02/12 10:47:23;;;;;;;1.08;0.60;;;24.70;45.60;;;;;;5072958;28;20229;-50
2023/02/12 10:49:58;;;;;;;1.25;0.57;;;24.70;45.60;;;;;;5072481;28;20238;-48
2023/02/12 10:52:36;;;;;;;1.55;0.43;;;24.70;45.70;;;;;;5039391;28;20778;-50
2023/02/12 10:55:29;;;;;;;0.50;0.40;;;24.70;45.70;;;;;;5032887;28;20651;-52
2023/02/12 10:58:01;;;;;;;1.70;0.50;;;24.60;45.70;;;;;;5033269;28;20744;-50
2023/02/12 11:00:36;;;;;;;1.10;0.52;;;24.60;45.70;;;;;;5033121;28;20226;-50
2023/02/12 11:03:23;;;;;;;0.63;0.40;;;24.60;45.70;;;;;;5033022;28;20679;-49
2023/02/12 11:05:54;;;;;;;0.60;0.40;;;24.60;45.70;;;;;;5032956;28;20202;-46
2023/02/12 11:08:37;;;;;;;0.88;0.50;;;24.50;45.70;;;;;;5046411;28;20237;-48
2023/02/12 11:11:12;;;;;;;1.45;0.60;;;24.50;45.70;;;;;;5052518;28;20211;-47
2023/02/12 11:13:47;;;;;;;1.20;0.40;;;24.50;45.70;;;;;;5051881;28;20650;-47
2023/02/12 11:16:30;;;;;;;0.73;0.30;;;24.50;45.70;;;;;;5052330;28;20203;-51
2023/02/12 11:19:07;;;;;;;2.63;0.75;;;24.40;45.70;;;;;;5052335;28;20196;-48
2023/02/12 11:21:38;;;;;;;0.47;0.47;;;24.40;45.70;;;;;;5049523;28;20294;-46
2023/02/12 11:24:31;;;;;;;1.13;0.63;;;24.40;45.70;;;;;;5032375;28;20198;-49
2023/02/12 11:27:25;;;;;;;1.02;0.40;;;24.40;46.30;;;;;;5032736;28;20645;-45
2023/02/12 11:30:14;;;;;;;0.88;0.50;;;24.30;45.70;;;;;;5034421;28;20193;-47
2023/02/12 11:32:48;;;;;;;2.47;0.70;;;24.30;45.70;;;;;;5032086;28;20649;-46
2023/02/12 11:35:23;;;;;;;1.30;0.32;;;24.30;45.70;;;;;;5031893;28;20200;-47
2023/02/12 11:37:56;;;;;;;2.13;0.47;;;24.20;45.70;;;;;;5041259;28;20201;-49
2023/02/12 11:40:29;;;;;;;1.77;0.40;;;24.20;45.80;;;;;;5051397;28;20393;-45
2023/02/12 11:43:02;;;;;;;0.65;0.35;;;24.20;45.80;;;;;;5051688;28;20199;-46
2023/02/12 11:45:36;;;;;;;0.73;0.35;;;24.20;45.80;;;;;;5052271;28;20203;-45
2023/02/12 11:48:21;;;;;;;0.90;0.50;;;24.20;45.80;;;;;;5052129;28;20280;-45
2023/02/12 11:50:53;;;;;;;0.50;0.47;;;24.20;45.80;;;;;;5051842;28;20294;-46
2023/02/12 11:53:27;;;;;;;0.77;0.47;;;24.20;45.80;;;;;;5052130;28;20201;-47
2023/02/12 11:56:00;;;;;;;1.65;0.70;;;24.10;45.80;;;;;;5052110;28;20196;-46
2023/02/12 11:58:32;;;;;;;1.05;0.40;;;24.10;45.70;;;;;;5051767;28;20550;-46
2023/02/12 12:01:13;;;;;;;0.85;0.50;;;24.10;45.80;;;;;;5051570;28;20216;-47
2023/02/12 12:03:53;;;;;;;1.27;0.63;;;24.10;45.80;;;;;;5051930;28;20205;-47
2023/02/12 12:06:33;;;;;;;0.73;0.50;;;24.00;45.80;;;;;;5051757;28;20201;-47
2023/02/12 12:09:14;;;;;;;0.85;0.50;;;24.00;45.80;;;;;;5051741;28;20667;-52
2023/02/12 12:11:54;;;;;;;1.35;0.40;;;24.00;45.80;;;;;;5051218;28;20590;-53
2023/02/12 12:14:30;;;;;;;0.65;0.40;;;23.90;45.80;;;;;;5051222;28;20282;-50
2023/02/12 12:20:01;;;;;;;0.88;0.50;;;23.90;45.80;;;;;;5051597;28;20222;-56
2023/02/12 12:22:48;;;;;;;1.10;0.35;;;23.90;45.90;;;;;;5051331;28;20663;-55
2023/02/12 12:25:27;;;;;;;1.23;0.60;;;23.80;45.80;;;;;;5051516;28;20199;-55
2023/02/12 12:28:08;;;;;;;0.30;0.30;;;23.80;45.90;;;;;;5047650;28;20683;-55
2023/02/12 12:31:01;;;;;;;1.13;0.50;;;23.80;45.90;;;;;;5051332;28;20230;-53
2023/02/12 12:33:42;;;;;;;0.52;0.50;;;23.80;46.50;;;;;;5051534;28;20208;-55
2023/02/12 12:36:37;;;;;;;0.82;0.55;;;23.80;45.90;;;;;;5050664;28;20566;-56
2023/02/12 12:39:27;;;;;;;1.15;0.40;;;23.70;45.80;;;;;;5031424;28;20204;-51
2023/02/12 12:42:31;;;;;;;1.65;0.50;;;23.70;45.90;;;;;;5031388;28;20216;-53
2023/02/12 12:45:20;;;;;;;1.13;0.40;;;23.70;45.90;;;;;;5031693;28;20204;-54
2023/02/12 12:48:06;;;;;;;0.95;0.30;;;23.70;45.90;;;;;;5030841;28;20591;-50
2023/02/12 12:50:56;;;;;;;0.85;0.40;;;23.70;45.90;;;;;;5030876;28;20220;-51
2023/02/12 12:53:49;;;;;;;1.40;0.50;;;23.60;45.90;;;;;;5031824;28;20195;-48
2023/02/12 12:56:43;;;;;;;1.13;0.57;;;23.60;46.50;;;;;;5031497;28;20566;-49
2023/02/12 12:59:43;;;;;;;0.70;0.28;;;23.60;45.90;;;;;;5031246;28;20571;-49
2023/02/12 13:02:40;;;;;;;0.75;0.40;;;23.50;45.90;;;;;;5031230;28;20307;-53
2023/02/12 13:05:45;;;;;;;1.35;0.47;;;23.50;46.00;;;;;;5031131;28;20203;-53
2023/02/12 13:08:26;;;;;;;1.05;0.63;;;23.50;46.00;;;;;;5042304;28;20737;-48
2023/02/12 13:11:01;;;;;;;0.90;0.50;;;23.50;46.00;;;;;;5050767;28;20230;-51
2023/02/12 13:13:35;;;;;;;0.35;0.30;;;23.50;46.10;;;;;;5049465;28;20223;-49
2023/02/12 13:16:17;;;;;;;0.95;0.70;;;23.50;46.10;;;;;;5031659;28;20200;-50
2023/02/12 13:18:58;;;;;;;0.60;0.40;;;23.40;46.00;;;;;;5031138;28;20559;-55
2023/02/12 13:21:42;;;;;;;1.27;0.52;;;23.40;46.10;;;;;;5031315;28;20216;-48
2023/02/12 13:24:24;;;;;;;0.82;0.40;;;23.40;46.10;;;;;;5030990;28;20204;-50
2023/02/12 13:27:00;;;;;;;0.70;0.50;;;23.40;46.10;;;;;;5031117;28;20193;-52
2023/02/12 13:29:34;;;;;;;1.25;0.50;;;23.40;46.10;;;;;;5031128;28;20195;-53
2023/02/12 13:32:13;;;;;;;0.82;0.43;;;23.40;46.10;;;;;;5030459;28;20211;-47
2023/02/12 13:34:46;;;;;;;0.82;0.50;;;23.30;46.10;;;;;;5042460;28;20195;-48
2023/02/12 13:37:20;;;;;;;0.77;0.50;;;23.30;46.10;;;;;;5050485;28;20589;-50
2023/02/12 13:39:52;;;;;;;0.93;0.50;;;23.30;46.20;;;;;;5050689;28;20195;-52
2023/02/12 13:42:47;;;;;;;0.40;0.28;;;23.30;46.20;;;;;;5050615;28;20211;-51
2023/02/12 13:45:36;;;;;;;1.00;0.30;;;23.30;46.30;;;;;;5067387;22;21677;-49
2023/02/12 13:48:26;;;;;;;1.13;0.30;;;23.30;46.30;;;;;;5074685;28;20573;-48
2023/02/12 13:51:03;;;;;;;1.27;0.40;;;23.20;46.20;;;;;;5074110;28;20215;-51
2023/02/12 13:53:46;;;;;;;1.58;0.65;;;23.20;46.20;;;;;;5074173;28;20202;-52
2023/02/12 13:56:30;;;;;;;0.45;0.40;;;23.20;46.20;;;;;;5074201;28;20198;-49
2023/02/12 13:59:03;;;;;;;1.05;0.50;;;23.20;46.20;;;;;;5074522;28;20199;-48
2023/02/12 14:01:45;;;;;;;1.25;0.50;;;23.20;46.20;;;;;;5074124;28;20214;-52
2023/02/12 14:04:32;;;;;;;0.88;0.50;;;23.20;46.20;;;;;;5073917;28;20194;-50
2023/02/12 14:07:05;;;;;;;0.50;0.30;;;23.20;46.20;;;;;;5074360;28;20210;-52
2023/02/12 14:09:39;;;;;;;1.02;0.40;;;23.20;46.20;;;;;;5074485;28;20203;-50
2023/02/12 14:12:14;;;;;;;0.50;0.50;;;23.10;46.20;;;;;;5073864;28;20221;-52
2023/02/12 14:14:49;;;;;;;1.02;0.50;;;23.10;46.20;;;;;;5073980;28;20198;-52
2023/02/12 14:17:44;;;;;;;0.75;0.30;;;23.10;46.20;;;;;;5073384;28;20202;-49
2023/02/12 14:20:27;;;;;;;0.50;0.38;;;23.10;46.30;;;;;;5059414;28;20202;-49
2023/02/12 14:23:25;;;;;;;0.47;0.30;;;23.00;46.30;;;;;;5073889;28;20201;-47
2023/02/12 14:26:05;;;;;;;1.13;0.47;;;23.00;46.30;;;;;;5067804;28;20202;-49
2023/02/12 14:28:52;;;;;;;0.82;0.60;;;23.00;46.30;;;;;;5073685;28;20218;-50
2023/02/12 14:31:41;;;;;;;0.95;0.57;;;23.00;46.30;;;;;;5073266;28;20219;-51
2023/02/12 14:34:44;;;;;;;0.75;0.50;;;23.00;46.30;;;;;;5073399;28;20202;-50
2023/02/12 14:37:20;;;;;;;0.77;0.43;;;23.00;46.30;;;;;;5062643;28;20209;-49
2023/02/12 14:39:50;;;;;;;0.80;0.60;;;23.00;46.30;;;;;;5073556;28;20560;-51
2023/02/12 14:42:45;;;;;;;0.52;0.30;;;23.00;46.30;;;;;;5073446;28;20690;-49
2023/02/12 14:45:34;;;;;;;0.60;0.40;;;23.00;46.30;;;;;;5064326;22;20277;-49
2023/02/12 14:48:07;;;;;;;0.40;0.40;;;23.00;46.30;;;;;;5052989;28;20227;-49
2023/02/12 14:50:50;;;;;;;0.57;0.30;;;22.90;46.40;;;;;;5050552;28;20234;-49
2023/02/12 14:53:31;;;;;;;1.05;0.40;;;22.90;46.40;;;;;;5052728;28;20197;-49
2023/02/12 14:56:04;;;;;;;0.40;0.40;;;22.90;46.40;;;;;;5052633;28;20200;-51
2023/02/12 14:58:35;;;;;;;0.63;0.38;;;22.90;46.40;;;;;;5052541;28;20211;-50
2023/02/12 15:01:07;;;;;;;0.82;0.40;;;22.90;46.40;;;;;;5053182;28;20680;-48
2023/02/12 15:03:44;;;;;;;0.57;0.30;;;22.80;46.40;;;;;;5052893;28;20196;-49
2023/02/12 15:06:20;;;;;;;1.05;0.40;;;22.80;46.40;;;;;;5052331;28;20195;-48
2023/02/12 15:08:56;;;;;;;0.30;0.30;;;22.80;46.40;;;;;;5052517;28;20238;-50
2023/02/12 15:11:41;;;;;;;0.63;0.40;;;22.80;46.40;;;;;;5052614;28;20294;-48
2023/02/12 15:14:20;;;;;;;0.43;0.30;;;22.80;46.50;;;;;;5052874;28;20196;-46
2023/02/12 15:16:58;;;;;;;0.38;0.30;;;22.80;46.50;;;;;;5052534;28;20202;-47
2023/02/12 15:19:43;;;;;;;0.63;0.50;;;22.80;46.50;;;;;;5051926;28;20234;-46